SAOC/RCU METAR and TAF weather

Enter ICAO airport designator
Station Type Date Time Source
SAOC METAR 2019/05/21 21:00 UTC NOAA

SAOC 212100Z 23011KT 1500 -DZBR OVC003 08/08 Q1025


Station Type Date Time Source
SAOC Decoded METAR 2019/05/21 21:00 UTC NOAA

Rio Cuarto Aerodrome, Argentina (SAOC) 33-07S 064-14W 421M
May 21, 2019 - 05:00 PM EDT / 2019.05.21 2100 UTC
Wind: from the SW (230 degrees) at 13 MPH (11 KT):0
Visibility: less than 1 mile:0
Sky conditions: overcast
Weather: light drizzle, mist
Temperature: 46 F (8 C)
Dew Point: 46 F (8 C)
Relative Humidity: 100%
Pressure (altimeter): 30.27 in. Hg (1025 hPa)
ob: SAOC 212100Z 23011KT 1500 -DZBR OVC003 08/08 Q1025
cycle: 21

Station Type Date Time Source
SAOC TAF 2019/05/15 18:18 UTC NOAA

TAF SAOC 151700Z 1518/1618 02010G20KT CAVOK TX21/1618Z TN10/1611Z
BECMG 1609/1612 0210KT 0800 BCFG BKN007
BECMG 1613/1616 02015KT 8000 BKN025

Example: see airport list